createdAt,value
2023-05-14T00:00:19.221Z,12.18
2023-05-14T00:02:49.746Z,10.82
2023-05-14T00:05:16.209Z,9.73
2023-05-14T00:07:42.764Z,11.80
2023-05-14T00:10:09.606Z,9.80
2023-05-14T00:12:35.901Z,10.02
2023-05-14T00:15:02.558Z,8.88
2023-05-14T00:17:28.979Z,9.38
2023-05-14T00:19:55.442Z,9.50
2023-05-14T00:22:21.851Z,11.27
2023-05-14T00:24:48.248Z,9.98
2023-05-14T00:27:14.735Z,10.38
2023-05-14T00:29:41.117Z,9.30
2023-05-14T00:32:07.878Z,12.27
2023-05-14T00:34:35.694Z,8.60
2023-05-14T00:37:02.110Z,9.68
2023-05-14T00:39:28.431Z,10.52
2023-05-14T00:41:54.784Z,8.27
2023-05-14T00:44:21.104Z,8.52
2023-05-14T00:46:47.592Z,7.68
2023-05-14T00:49:14.375Z,7.03
2023-05-14T00:51:41.472Z,8.85
2023-05-14T00:54:08.137Z,7.75
2023-05-14T00:56:34.824Z,11.55
2023-05-14T00:59:01.378Z,8.07
2023-05-14T01:01:28.601Z,9.13
2023-05-14T01:03:57.600Z,9.57
2023-05-14T01:06:27.255Z,13.15
2023-05-14T01:09:03.281Z,8.18
2023-05-14T01:11:37.762Z,8.77
2023-05-14T01:14:38.291Z,9.52
2023-05-14T01:17:06.240Z,8.75
2023-05-14T01:19:40.484Z,7.55
2023-05-14T01:22:06.855Z,8.25
2023-05-14T01:24:33.360Z,10.82
2023-05-14T01:27:23.828Z,8.25
2023-05-14T01:30:02.760Z,10.07
2023-05-14T01:32:30.832Z,7.93
2023-05-14T01:34:59.362Z,8.50
2023-05-14T01:37:28.002Z,9.23
2023-05-14T01:39:56.061Z,10.57
2023-05-14T01:42:23.220Z,7.70
2023-05-14T01:44:49.805Z,9.50
2023-05-14T01:47:16.180Z,9.40
2023-05-14T01:49:42.493Z,9.85
2023-05-14T01:52:08.792Z,10.30
2023-05-14T01:54:35.313Z,7.57
2023-05-14T01:57:01.599Z,8.13
2023-05-14T01:59:29.732Z,10.52
2023-05-14T02:01:56.235Z,8.15
2023-05-14T02:04:22.695Z,7.95
2023-05-14T02:06:49.123Z,7.90
2023-05-14T02:09:15.601Z,9.32
2023-05-14T02:11:41.950Z,7.50
2023-05-14T02:14:08.280Z,7.85
2023-05-14T02:16:34.675Z,8.30
2023-05-14T02:19:01.073Z,8.02
2023-05-14T02:21:27.602Z,9.52
2023-05-14T02:23:53.948Z,8.45
2023-05-14T02:26:21.367Z,9.43
2023-05-14T02:28:47.852Z,10.13
2023-05-14T02:31:14.431Z,10.70
2023-05-14T02:33:40.966Z,8.45
2023-05-14T02:36:07.564Z,9.82
2023-05-14T02:38:33.876Z,8.88
2023-05-14T02:41:00.314Z,7.78
2023-05-14T02:43:26.745Z,8.55
2023-05-14T02:45:53.081Z,7.53
2023-05-14T02:48:19.464Z,8.85
2023-05-14T02:50:46.816Z,9.77
2023-05-14T02:53:13.170Z,10.20
2023-05-14T02:55:39.523Z,9.27
2023-05-14T02:58:05.930Z,10.07
2023-05-14T03:00:32.403Z,7.45
2023-05-14T03:02:59.242Z,8.57
2023-05-14T03:05:25.996Z,11.98
2023-05-14T03:07:53.645Z,7.18
2023-05-14T03:10:20.565Z,15.85
2023-05-14T03:12:47.456Z,10.25
2023-05-14T03:15:14.936Z,8.05
2023-05-14T03:17:41.423Z,7.68
2023-05-14T03:20:08.358Z,8.43
2023-05-14T03:22:34.661Z,8.90
2023-05-14T03:25:01.112Z,10.15
2023-05-14T03:27:27.456Z,8.80
2023-05-14T03:29:53.786Z,9.00
2023-05-14T03:32:21.185Z,8.10
2023-05-14T03:34:47.639Z,9.50
2023-05-14T03:37:14.004Z,8.93
2023-05-14T03:39:40.361Z,7.75
2023-05-14T03:42:06.772Z,10.07
2023-05-14T03:44:33.185Z,9.45
2023-05-14T03:46:59.581Z,9.15
2023-05-14T03:49:26.011Z,8.57
2023-05-14T03:51:52.376Z,8.70
2023-05-14T03:54:18.736Z,8.98
2023-05-14T03:56:45.834Z,9.48
2023-05-14T03:59:12.141Z,9.40
2023-05-14T04:01:38.520Z,9.77
2023-05-14T04:04:05.039Z,9.85
2023-05-14T04:06:31.423Z,8.50
2023-05-14T04:08:57.760Z,12.40
2023-05-14T04:11:24.091Z,6.90
2023-05-14T04:13:50.559Z,10.27
2023-05-14T04:16:16.932Z,8.70
2023-05-14T04:18:43.323Z,9.45
2023-05-14T04:21:09.750Z,10.02
2023-05-14T04:23:36.104Z,9.32
2023-05-14T04:26:02.515Z,8.98
2023-05-14T04:28:28.857Z,9.50
2023-05-14T04:30:55.368Z,9.82
2023-05-14T04:33:21.722Z,17.48
2023-05-14T04:35:48.336Z,8.43
2023-05-14T04:38:14.706Z,8.90
2023-05-14T04:40:43.750Z,11.20
2023-05-14T04:43:10.656Z,9.63
2023-05-14T04:45:37.114Z,8.55
2023-05-14T04:48:04.707Z,9.50
2023-05-14T04:50:31.258Z,8.55
2023-05-14T04:52:57.685Z,10.50
2023-05-14T04:55:24.278Z,10.35
2023-05-14T04:57:50.700Z,7.97
2023-05-14T05:00:17.679Z,9.82
2023-05-14T05:02:44.063Z,9.20
2023-05-14T05:05:10.658Z,7.60
2023-05-14T05:07:37.008Z,8.38
2023-05-14T05:10:03.565Z,8.35
2023-05-14T05:12:30.203Z,11.27
2023-05-14T05:14:57.289Z,7.95
2023-05-14T05:17:24.680Z,11.40
2023-05-14T05:19:51.098Z,9.95
2023-05-14T05:22:17.478Z,11.13
2023-05-14T05:24:43.833Z,11.55
2023-05-14T05:27:10.221Z,8.88
2023-05-14T05:29:37.109Z,8.75
2023-05-14T05:32:03.857Z,9.70
2023-05-14T05:34:30.389Z,8.30
2023-05-14T05:36:57.115Z,9.68
2023-05-14T05:39:23.462Z,8.38
2023-05-14T05:41:49.810Z,8.13
2023-05-14T05:44:16.150Z,9.00
2023-05-14T05:46:42.565Z,8.15
2023-05-14T05:49:08.876Z,8.45
2023-05-14T05:51:35.212Z,10.00
2023-05-14T05:54:01.540Z,7.93
2023-05-14T05:56:27.896Z,8.65
2023-05-14T05:58:54.224Z,8.70
2023-05-14T06:01:20.585Z,8.27
2023-05-14T06:03:48.527Z,10.65
2023-05-14T06:06:15.485Z,9.70
2023-05-14T06:08:42.026Z,9.05
2023-05-14T06:11:08.442Z,7.90
2023-05-14T06:13:34.748Z,9.32
2023-05-14T06:16:01.262Z,8.95
2023-05-14T06:18:27.718Z,9.25
2023-05-14T06:20:56.585Z,10.82
2023-05-14T06:23:22.955Z,9.55
2023-05-14T06:25:50.832Z,7.95
2023-05-14T06:28:17.424Z,10.55
2023-05-14T06:30:43.776Z,9.23
2023-05-14T06:33:10.320Z,16.75
2023-05-14T06:35:36.959Z,11.57
2023-05-14T06:38:03.620Z,9.85
2023-05-14T06:40:29.989Z,7.90
2023-05-14T06:42:56.321Z,10.50
2023-05-14T06:45:22.688Z,8.65
2023-05-14T06:47:49.080Z,7.18
2023-05-14T06:50:15.466Z,6.63
2023-05-14T06:52:43.494Z,8.80
2023-05-14T06:55:10.081Z,6.68
2023-05-14T06:57:37.310Z,7.95
2023-05-14T07:00:06.516Z,6.45
2023-05-14T07:02:32.931Z,6.20
2023-05-14T07:04:59.450Z,6.00
2023-05-14T07:07:25.931Z,7.65
2023-05-14T07:09:52.335Z,5.75
2023-05-14T07:12:18.650Z,8.00
2023-05-14T07:14:45.067Z,5.72
2023-05-14T07:17:11.486Z,4.55
2023-05-14T07:19:37.885Z,8.25
2023-05-14T07:22:04.515Z,6.43
2023-05-14T07:24:30.824Z,3.92
2023-05-14T07:26:57.789Z,5.13
2023-05-14T07:29:25.401Z,5.20
2023-05-14T07:31:52.080Z,4.38
2023-05-14T07:34:19.273Z,6.63
2023-05-14T07:36:46.176Z,4.82
2023-05-14T07:39:12.598Z,4.03
2023-05-14T07:41:38.897Z,5.72
2023-05-14T07:44:05.693Z,3.70
2023-05-14T07:46:32.001Z,4.22
2023-05-14T07:48:58.289Z,4.90
2023-05-14T07:51:28.071Z,4.65
2023-05-14T07:53:56.410Z,4.32
2023-05-14T07:56:22.912Z,4.57
2023-05-14T07:58:50.927Z,6.35
2023-05-14T08:01:17.626Z,3.88
2023-05-14T08:03:44.012Z,4.75
2023-05-14T08:06:10.396Z,5.57
2023-05-14T08:08:36.799Z,3.35
2023-05-14T08:11:03.762Z,3.55
2023-05-14T08:13:30.485Z,6.13
2023-05-14T08:15:56.812Z,4.43
2023-05-14T08:18:23.194Z,5.88
2023-05-14T08:20:49.607Z,3.45
2023-05-14T08:23:15.930Z,3.75
2023-05-14T08:25:42.264Z,3.03
2023-05-14T08:28:08.685Z,3.33
2023-05-14T08:30:35.029Z,4.68
2023-05-14T08:33:01.595Z,2.92
2023-05-14T08:35:27.884Z,3.55
2023-05-14T08:37:54.305Z,3.97
2023-05-14T08:40:21.308Z,5.32
2023-05-14T08:42:48.365Z,3.92
2023-05-14T08:45:25.503Z,5.47
2023-05-14T08:47:51.963Z,4.15
2023-05-14T08:50:21.883Z,3.38
2023-05-14T08:52:49.415Z,4.22
2023-05-14T08:55:15.791Z,5.13
2023-05-14T08:57:42.244Z,5.80
2023-05-14T09:00:11.905Z,3.85
2023-05-14T09:02:40.587Z,5.38
2023-05-14T09:05:07.416Z,4.15
2023-05-14T09:07:33.828Z,4.25
2023-05-14T09:10:01.880Z,4.05
2023-05-14T09:12:28.418Z,4.72
2023-05-14T09:14:54.793Z,3.75
2023-05-14T09:17:21.316Z,4.40
2023-05-14T09:19:53.274Z,4.15
2023-05-14T09:22:20.367Z,3.88
2023-05-14T09:25:01.214Z,3.60
2023-05-14T09:27:29.865Z,3.65
2023-05-14T09:29:56.202Z,3.85
2023-05-14T09:32:22.544Z,5.80
2023-05-14T09:34:48.924Z,4.85
2023-05-14T09:37:15.257Z,4.03
2023-05-14T09:39:41.596Z,5.65
2023-05-14T09:42:08.294Z,4.72
2023-05-14T09:44:36.243Z,4.20
2023-05-14T09:47:02.671Z,4.25
2023-05-14T09:49:29.166Z,4.03
2023-05-14T09:51:57.753Z,4.15
2023-05-14T09:54:26.411Z,3.90
2023-05-14T09:56:54.539Z,5.15
2023-05-14T09:59:22.117Z,4.82
2023-05-14T10:01:49.802Z,4.60
2023-05-14T10:04:16.528Z,4.43
2023-05-14T10:06:47.725Z,4.97
2023-05-14T10:09:19.565Z,3.53
2023-05-14T10:11:50.138Z,3.95
2023-05-14T10:14:33.488Z,5.97
2023-05-14T10:17:01.611Z,6.00
2023-05-14T10:19:31.877Z,3.28
2023-05-14T10:22:04.860Z,4.30
2023-05-14T10:24:31.713Z,4.60
2023-05-14T10:26:58.737Z,3.83
2023-05-14T10:29:33.900Z,4.85
2023-05-14T10:32:07.656Z,4.20
2023-05-14T10:34:37.825Z,4.75
2023-05-14T10:37:07.676Z,3.67
2023-05-14T10:40:06.086Z,4.25
2023-05-14T10:42:39.589Z,3.28
2023-05-14T10:45:08.647Z,4.10
2023-05-14T10:47:41.771Z,3.97
2023-05-14T10:50:14.089Z,3.58
2023-05-14T10:52:43.292Z,3.22
2023-05-14T10:55:13.313Z,4.22
2023-05-14T10:57:43.700Z,2.85
2023-05-14T11:00:12.456Z,3.60
2023-05-14T11:02:41.225Z,2.92
2023-05-14T11:05:10.393Z,3.33
2023-05-14T11:07:42.711Z,3.08
2023-05-14T11:10:10.697Z,3.40
2023-05-14T11:12:39.549Z,3.88
2023-05-14T11:15:11.179Z,3.03
2023-05-14T11:17:40.307Z,2.88
2023-05-14T11:20:08.003Z,3.15
2023-05-14T11:22:35.701Z,3.13
2023-05-14T11:25:02.372Z,2.45
2023-05-14T11:27:29.953Z,3.50
2023-05-14T11:29:58.002Z,2.83
2023-05-14T11:32:24.503Z,7.10
2023-05-14T11:34:51.304Z,2.97
2023-05-14T11:37:17.757Z,2.83
2023-05-14T11:39:49.972Z,3.00
2023-05-14T11:42:19.447Z,2.35
2023-05-14T11:44:48.837Z,2.28
2023-05-14T11:47:16.666Z,3.70
2023-05-14T11:49:42.954Z,4.22
2023-05-14T11:52:11.691Z,2.65
2023-05-14T11:54:38.117Z,2.92
2023-05-14T11:57:16.507Z,3.45
2023-05-14T11:59:43.369Z,2.92
2023-05-14T12:02:14.521Z,3.70
2023-05-14T12:04:42.708Z,2.50
2023-05-14T12:07:14.824Z,2.35
2023-05-14T12:09:51.222Z,2.67
2023-05-14T12:12:20.319Z,3.30
2023-05-14T12:14:47.358Z,3.17
2023-05-14T12:17:21.780Z,2.95
2023-05-14T12:19:53.075Z,3.78
2023-05-14T12:22:22.097Z,2.70
2023-05-14T12:24:59.516Z,2.67
2023-05-14T12:27:27.742Z,3.42
2023-05-14T12:30:19.782Z,2.67
2023-05-14T12:32:48.615Z,3.47
2023-05-14T12:35:15.089Z,2.60
2023-05-14T12:37:42.528Z,3.03
2023-05-14T12:40:09.638Z,2.80
2023-05-14T12:42:36.443Z,2.80
2023-05-14T12:45:06.918Z,3.08
2023-05-14T12:47:33.336Z,2.75
2023-05-14T12:49:59.790Z,4.45
2023-05-14T12:54:59.927Z,2.20
2023-05-14T12:57:27.708Z,3.00
2023-05-14T12:59:55.223Z,3.20
2023-05-14T13:02:21.848Z,2.83
2023-05-14T13:04:48.243Z,2.85
2023-05-14T13:07:14.596Z,2.78
2023-05-14T13:09:40.880Z,3.63
2023-05-14T13:12:07.628Z,2.30
2023-05-14T13:14:34.010Z,4.70
2023-05-14T13:17:01.015Z,3.33
2023-05-14T13:19:27.405Z,2.92
2023-05-14T13:21:53.773Z,2.38
2023-05-14T13:24:20.121Z,3.22
2023-05-14T13:26:46.556Z,3.50
2023-05-14T13:29:12.865Z,2.70
2023-05-14T13:31:39.201Z,3.72
2023-05-14T13:34:05.619Z,2.42
2023-05-14T13:36:32.202Z,3.13
2023-05-14T13:38:58.553Z,2.58
2023-05-14T13:41:26.134Z,3.00
2023-05-14T13:43:52.489Z,2.78
2023-05-14T13:46:18.809Z,2.50
2023-05-14T13:48:45.130Z,2.50
2023-05-14T13:51:11.419Z,3.45
2023-05-14T13:53:37.759Z,3.15
2023-05-14T13:56:06.322Z,2.75
2023-05-14T13:58:32.705Z,2.67
2023-05-14T14:00:59.097Z,2.85
2023-05-14T14:03:25.513Z,2.70
2023-05-14T14:05:52.486Z,2.88
2023-05-14T14:08:24.000Z,2.78
2023-05-14T14:10:51.557Z,2.60
2023-05-14T14:13:17.935Z,2.88
2023-05-14T14:15:44.346Z,2.72
2023-05-14T14:18:10.840Z,2.60
2023-05-14T14:20:37.285Z,3.78
2023-05-14T14:23:03.670Z,2.47
2023-05-14T14:25:30.035Z,2.38
2023-05-14T14:27:56.518Z,2.75
2023-05-14T14:30:22.892Z,2.60
2023-05-14T14:32:49.853Z,2.92
2023-05-14T14:35:18.085Z,4.45
2023-05-14T14:37:48.919Z,3.35
2023-05-14T14:40:16.459Z,2.65
2023-05-14T14:42:43.319Z,2.83
2023-05-14T14:45:10.298Z,2.35
2023-05-14T14:47:36.793Z,2.53
2023-05-14T14:50:03.294Z,2.67
2023-05-14T14:52:29.848Z,2.38
2023-05-14T14:54:56.401Z,3.38
2023-05-14T14:57:22.893Z,2.35
2023-05-14T14:59:49.391Z,2.60
2023-05-14T15:02:16.192Z,3.33
2023-05-14T15:04:42.755Z,3.15
2023-05-14T15:07:09.155Z,2.72
2023-05-14T15:09:35.524Z,3.63
2023-05-14T15:12:01.948Z,3.08
2023-05-14T15:14:28.422Z,1.98
2023-05-14T15:16:54.918Z,3.25
2023-05-14T15:19:21.347Z,2.30
2023-05-14T15:21:47.776Z,2.35
2023-05-14T15:24:14.204Z,3.33
2023-05-14T15:26:40.912Z,3.50
2023-05-14T15:29:07.731Z,6.00
2023-05-14T15:31:34.668Z,3.35
2023-05-14T15:34:01.154Z,3.25
2023-05-14T15:36:28.506Z,2.78
2023-05-14T15:38:54.903Z,3.90
2023-05-14T15:41:21.334Z,2.78
2023-05-14T15:43:47.792Z,1.90
2023-05-14T15:46:14.237Z,2.42
2023-05-14T15:48:40.610Z,2.22
2023-05-14T15:51:07.711Z,2.95
2023-05-14T15:53:34.174Z,2.22
2023-05-14T15:56:00.626Z,2.17
2023-05-14T15:58:27.020Z,3.25
2023-05-14T16:00:53.386Z,4.28
2023-05-14T16:03:19.773Z,3.22
2023-05-14T16:05:46.786Z,2.30
2023-05-14T16:08:13.123Z,4.13
2023-05-14T16:10:39.594Z,3.30
2023-05-14T16:13:05.968Z,2.10
2023-05-14T16:15:32.356Z,2.88
2023-05-14T16:18:00.096Z,3.17
2023-05-14T16:20:26.594Z,2.85
2023-05-14T16:22:52.956Z,2.70
2023-05-14T16:25:19.438Z,2.03
2023-05-14T16:27:45.882Z,2.58
2023-05-14T16:30:12.507Z,6.95
2023-05-14T16:32:38.829Z,3.28
2023-05-14T16:35:05.428Z,2.40
2023-05-14T16:37:31.776Z,2.92
2023-05-14T16:39:58.117Z,2.22
2023-05-14T16:42:24.486Z,4.90
2023-05-14T16:44:50.984Z,1.95
2023-05-14T16:47:17.289Z,2.75
2023-05-14T16:49:43.626Z,2.45
2023-05-14T16:52:09.988Z,2.42
2023-05-14T16:54:36.413Z,2.80
2023-05-14T16:57:02.840Z,2.42
2023-05-14T16:59:29.203Z,2.53
2023-05-14T17:01:55.982Z,2.53
2023-05-14T17:04:24.789Z,5.50
2023-05-14T17:06:51.200Z,2.65
2023-05-14T17:09:17.649Z,2.78
2023-05-14T17:11:44.043Z,2.95
2023-05-14T17:14:10.436Z,1.90
2023-05-14T17:16:38.696Z,2.70
2023-05-14T17:19:05.111Z,2.60
2023-05-14T17:21:31.656Z,1.92
2023-05-14T17:23:58.315Z,1.85
2023-05-14T17:26:24.676Z,1.95
2023-05-14T17:28:50.993Z,2.78
2023-05-14T17:31:17.362Z,1.92
2023-05-14T17:33:43.794Z,2.95
2023-05-14T17:36:10.202Z,1.85
2023-05-14T17:38:36.552Z,1.95
2023-05-14T17:41:03.186Z,2.58
2023-05-14T17:43:29.670Z,3.42
2023-05-14T17:45:56.122Z,2.15
2023-05-14T17:48:23.844Z,2.22
2023-05-14T17:50:51.591Z,2.13
2023-05-14T17:53:18.100Z,2.10
2023-05-14T17:55:44.672Z,2.33
2023-05-14T17:58:13.394Z,1.92
2023-05-14T18:00:40.231Z,1.90
2023-05-14T18:03:07.815Z,2.13
2023-05-14T18:05:34.784Z,1.98
2023-05-14T18:08:01.177Z,2.17
2023-05-14T18:10:29.364Z,2.17
2023-05-14T18:12:56.280Z,2.42
2023-05-14T18:15:25.568Z,3.00
2023-05-14T18:17:52.800Z,3.97
2023-05-14T18:20:19.609Z,2.60
2023-05-14T18:22:45.932Z,2.78
2023-05-14T18:25:12.884Z,2.00
2023-05-14T18:27:44.384Z,2.40
2023-05-14T18:30:15.798Z,3.83
2023-05-14T18:32:44.026Z,2.20
2023-05-14T18:35:11.571Z,2.40
2023-05-14T18:37:37.982Z,3.78
2023-05-14T18:40:04.978Z,2.85
2023-05-14T18:42:31.477Z,1.90
2023-05-14T18:44:57.815Z,2.33
2023-05-14T18:47:24.238Z,2.15
2023-05-14T18:49:54.775Z,4.47
2023-05-14T18:52:22.572Z,2.17
2023-05-14T18:54:48.946Z,6.47
2023-05-14T18:57:15.338Z,2.20
2023-05-14T18:59:41.710Z,3.00
2023-05-14T19:02:08.084Z,3.25
2023-05-14T19:04:44.235Z,2.67
2023-05-14T19:07:17.456Z,4.82
2023-05-14T19:09:43.830Z,2.97
2023-05-14T19:12:10.188Z,4.05
2023-05-14T19:14:36.490Z,3.08
2023-05-14T19:17:03.117Z,4.30
2023-05-14T19:19:29.428Z,2.95
2023-05-14T19:21:55.748Z,2.40
2023-05-14T19:24:22.101Z,4.15
2023-05-14T19:26:48.511Z,3.20
2023-05-14T19:29:14.836Z,3.13
2023-05-14T19:31:41.215Z,2.60
2023-05-14T19:34:07.631Z,3.47
2023-05-14T19:36:34.078Z,3.83
2023-05-14T19:39:00.457Z,3.80
2023-05-14T19:41:27.632Z,4.50
2023-05-14T19:43:53.991Z,4.47
2023-05-14T19:46:20.468Z,3.50
2023-05-14T19:48:48.387Z,4.63
2023-05-14T19:51:14.797Z,4.03
2023-05-14T19:53:41.163Z,3.88
2023-05-14T19:56:07.499Z,2.90
2023-05-14T19:58:33.892Z,4.00
2023-05-14T20:01:00.708Z,3.67
2023-05-14T20:03:27.242Z,3.40
2023-05-14T20:05:54.815Z,5.20
2023-05-14T20:08:21.426Z,2.88
2023-05-14T20:10:48.478Z,3.03
2023-05-14T20:13:15.056Z,3.28
2023-05-14T20:15:41.887Z,3.33
2023-05-14T20:18:08.569Z,4.32
2023-05-14T20:20:35.514Z,3.85
2023-05-14T20:23:02.052Z,2.53
2023-05-14T20:25:28.890Z,4.07
2023-05-14T20:27:55.425Z,4.50
2023-05-14T20:30:21.806Z,3.53
2023-05-14T20:32:48.196Z,3.40
2023-05-14T20:35:14.743Z,6.18
2023-05-14T20:37:41.296Z,3.33
2023-05-14T20:40:10.327Z,2.70
2023-05-14T20:42:37.104Z,3.53
2023-05-14T20:45:05.028Z,4.95
2023-05-14T20:47:34.091Z,3.65
2023-05-14T20:50:00.938Z,2.85
2023-05-14T20:52:27.516Z,2.35
2023-05-14T20:54:53.926Z,2.53
2023-05-14T20:57:20.439Z,3.50
2023-05-14T20:59:47.401Z,4.47
2023-05-14T21:02:13.821Z,3.03
2023-05-14T21:04:40.535Z,2.90
2023-05-14T21:07:07.151Z,3.65
2023-05-14T21:09:33.509Z,4.15
2023-05-14T21:11:59.872Z,2.47
2023-05-14T21:14:26.259Z,2.60
2023-05-14T21:16:52.777Z,2.53
2023-05-14T21:19:19.464Z,2.97
2023-05-14T21:21:47.187Z,4.13
2023-05-14T21:24:13.533Z,2.88
2023-05-14T21:26:40.298Z,3.30
2023-05-14T21:29:06.859Z,3.38
2023-05-14T21:31:33.250Z,6.03
2023-05-14T21:33:59.581Z,3.17
2023-05-14T21:36:25.947Z,3.90
2023-05-14T21:38:53.461Z,4.90
2023-05-14T21:41:19.821Z,3.63
2023-05-14T21:43:46.788Z,3.03
2023-05-14T21:46:13.209Z,4.55
2023-05-14T21:48:39.642Z,5.18
2023-05-14T21:51:06.466Z,3.78
2023-05-14T21:53:32.843Z,3.17
2023-05-14T21:55:59.142Z,4.10
2023-05-14T21:58:26.737Z,3.55
2023-05-14T22:00:53.058Z,4.10
2023-05-14T22:03:19.502Z,3.08
2023-05-14T22:05:46.010Z,3.42
2023-05-14T22:08:12.346Z,3.13
2023-05-14T22:10:38.683Z,5.47
2023-05-14T22:13:04.991Z,5.38
2023-05-14T22:15:31.321Z,2.92
2023-05-14T22:17:57.669Z,4.10
2023-05-14T22:20:24.149Z,3.30
2023-05-14T22:22:51.425Z,3.92
2023-05-14T22:25:17.783Z,3.65
2023-05-14T22:27:44.169Z,3.20
2023-05-14T22:30:10.990Z,4.07
2023-05-14T22:32:37.443Z,4.75
2023-05-14T22:35:04.051Z,4.18
2023-05-14T22:37:30.433Z,3.65
2023-05-14T22:39:56.742Z,3.72
2023-05-14T22:42:23.078Z,3.22
2023-05-14T22:44:49.369Z,3.28
2023-05-14T22:47:16.345Z,4.82
2023-05-14T22:49:43.510Z,3.92
2023-05-14T22:52:10.104Z,3.88
2023-05-14T22:54:36.501Z,5.72
2023-05-14T22:57:03.441Z,3.70
2023-05-14T22:59:29.766Z,3.80
2023-05-14T23:01:56.098Z,4.43
2023-05-14T23:04:22.522Z,4.90
2023-05-14T23:06:48.859Z,5.15
2023-05-14T23:09:15.254Z,3.80
2023-05-14T23:11:41.680Z,3.08
2023-05-14T23:14:08.304Z,4.70
2023-05-14T23:16:35.222Z,4.88
2023-05-14T23:19:01.724Z,3.45
2023-05-14T23:21:28.163Z,4.28
2023-05-14T23:23:54.537Z,4.13
2023-05-14T23:26:21.674Z,4.50
2023-05-14T23:28:47.977Z,3.78
2023-05-14T23:31:14.307Z,5.45
2023-05-14T23:33:40.954Z,4.63
2023-05-14T23:36:07.943Z,4.13
2023-05-14T23:38:34.399Z,5.00
2023-05-14T23:41:00.747Z,6.40
2023-05-14T23:43:27.154Z,5.00
2023-05-14T23:45:53.655Z,4.05
2023-05-14T23:48:20.048Z,4.03
2023-05-14T23:50:46.410Z,5.93
2023-05-14T23:53:12.780Z,4.30
2023-05-14T23:55:39.372Z,5.10
2023-05-14T23:58:06.176Z,6.03
